createdAt,value
2018-02-13T00:03:06.237Z,84.60
2018-02-13T00:05:35.310Z,85.10
2018-02-13T00:08:03.029Z,85.00
2018-02-13T00:12:58.314Z,85.60
2018-02-13T00:15:26.051Z,87.00
2018-02-13T00:17:53.697Z,88.00
2018-02-13T00:20:22.382Z,88.50
2018-02-13T00:22:50.094Z,89.50
2018-02-13T00:25:17.733Z,88.40
2018-02-13T00:27:45.364Z,88.60
2018-02-13T00:30:13.088Z,87.50
2018-02-13T00:32:40.731Z,89.60
2018-02-13T00:35:08.370Z,88.10
2018-02-13T00:37:37.979Z,87.90
2018-02-13T00:40:05.617Z,86.90
2018-02-13T00:42:33.261Z,87.30
2018-02-13T00:47:40.060Z,86.90
2018-02-13T00:50:07.806Z,87.90
2018-02-13T00:55:03.074Z,89.10
2018-02-13T00:57:30.776Z,88.90
2018-02-13T00:59:58.417Z,89.20
2018-02-13T01:02:26.072Z,89.90
2018-02-13T01:04:53.758Z,90.30
2018-02-13T01:09:49.965Z,90.80
2018-02-13T01:12:18.521Z,91.90
2018-02-13T01:14:46.608Z,91.50
2018-02-13T01:17:14.240Z,91.90
2018-02-13T01:19:41.937Z,91.40
2018-02-13T01:22:10.550Z,90.90
2018-02-13T01:24:38.174Z,90.70
2018-02-13T01:27:05.910Z,89.70
2018-02-13T01:29:33.551Z,89.80
2018-02-13T01:32:01.180Z,90.10
2018-02-13T01:34:28.885Z,89.50
2018-02-13T01:36:57.525Z,89.70
2018-02-13T01:39:25.165Z,88.50
2018-02-13T01:41:53.826Z,87.50
2018-02-13T01:44:21.460Z,88.00
2018-02-13T01:49:19.689Z,88.70
2018-02-13T01:51:47.355Z,88.70
2018-02-13T01:54:14.989Z,87.30
2018-02-13T01:56:42.715Z,88.60
2018-02-13T02:01:50.368Z,87.50
2018-02-13T02:04:18.001Z,88.00
2018-02-13T02:06:45.640Z,87.40
2018-02-13T02:09:13.340Z,87.20
2018-02-13T02:11:40.973Z,86.30
2018-02-13T02:16:36.312Z,85.60
2018-02-13T02:19:06.629Z,85.30
2018-02-13T02:21:34.233Z,86.10
2018-02-13T02:24:01.941Z,86.10
2018-02-13T02:26:29.843Z,86.00
2018-02-13T02:28:57.475Z,86.20
2018-02-13T02:31:25.184Z,87.00
2018-02-13T02:33:52.811Z,85.70
2018-02-13T02:36:20.441Z,85.30
2018-02-13T02:38:48.149Z,85.60
2018-02-13T02:41:15.802Z,85.80
2018-02-13T02:43:43.437Z,86.10
2018-02-13T02:46:11.154Z,86.80
2018-02-13T02:48:38.813Z,87.40
2018-02-13T02:51:06.467Z,86.90
2018-02-13T02:53:34.154Z,87.10
2018-02-13T02:56:01.800Z,86.60
2018-02-13T02:58:29.429Z,85.30
2018-02-13T03:00:57.126Z,84.60
2018-02-13T03:03:24.765Z,85.40
2018-02-13T03:05:52.405Z,84.10
2018-02-13T03:08:20.736Z,83.20
2018-02-13T03:10:51.554Z,84.10
2018-02-13T03:13:16.290Z,84.80
2018-02-13T03:15:44.846Z,84.90
2018-02-13T03:18:13.374Z,83.50
2018-02-13T03:20:41.088Z,83.80
2018-02-13T03:25:48.297Z,84.80
2018-02-13T03:28:17.049Z,83.70
2018-02-13T03:30:44.681Z,84.50
2018-02-13T03:33:13.145Z,84.40
2018-02-13T03:35:40.836Z,85.10
2018-02-13T03:38:08.488Z,84.00
2018-02-13T03:40:36.131Z,84.20
2018-02-13T03:43:03.823Z,84.50
2018-02-13T03:45:31.479Z,85.20
2018-02-13T03:47:59.117Z,86.20
2018-02-13T03:50:26.823Z,87.50
2018-02-13T03:52:54.461Z,87.50
2018-02-13T03:55:22.107Z,86.70
2018-02-13T03:57:49.829Z,85.90
2018-02-13T04:00:17.483Z,85.90
2018-02-13T04:02:45.139Z,85.60
2018-02-13T04:05:12.845Z,84.60
2018-02-13T04:07:40.476Z,84.90
2018-02-13T04:10:08.114Z,85.20
2018-02-13T04:12:35.809Z,85.00
2018-02-13T04:15:03.448Z,84.90
2018-02-13T04:17:31.085Z,85.60
2018-02-13T04:19:58.809Z,85.40
2018-02-13T04:22:26.507Z,85.80
2018-02-13T04:24:54.873Z,85.50
2018-02-13T04:27:22.572Z,85.50
2018-02-13T04:29:51.858Z,85.80
2018-02-13T04:32:19.502Z,86.30
2018-02-13T04:34:47.194Z,87.30
2018-02-13T04:37:14.843Z,87.80
2018-02-13T04:42:21.097Z,86.50
2018-02-13T04:44:49.042Z,86.40
2018-02-13T04:47:16.663Z,86.80
2018-02-13T04:49:44.407Z,87.00
2018-02-13T04:52:12.516Z,87.00
2018-02-13T04:54:41.108Z,87.10
2018-02-13T04:57:08.856Z,87.40
2018-02-13T04:59:36.494Z,87.50
2018-02-13T05:02:04.128Z,87.10
2018-02-13T05:04:31.824Z,86.70
2018-02-13T05:06:59.458Z,87.40
2018-02-13T05:09:28.031Z,87.50
2018-02-13T05:11:55.743Z,87.30
2018-02-13T05:14:23.393Z,86.20
2018-02-13T05:16:51.059Z,87.00
2018-02-13T05:19:19.702Z,86.30
2018-02-13T05:21:47.337Z,86.20
2018-02-13T05:24:14.997Z,86.70
2018-02-13T05:26:42.704Z,86.50
2018-02-13T05:29:11.181Z,86.50
2018-02-13T05:31:38.814Z,86.80
2018-02-13T05:34:07.508Z,86.80
2018-02-13T05:36:35.148Z,86.70
2018-02-13T05:39:02.789Z,87.00
2018-02-13T05:41:30.485Z,87.90
2018-02-13T05:43:58.131Z,88.90
2018-02-13T05:46:25.765Z,90.00
2018-02-13T05:48:53.517Z,89.20
2018-02-13T05:51:21.100Z,89.90
2018-02-13T05:53:48.750Z,90.00
2018-02-13T05:56:17.325Z,90.40
2018-02-13T05:58:44.969Z,90.70
2018-02-13T06:01:12.604Z,91.60
2018-02-13T06:03:40.324Z,91.20
2018-02-13T06:06:07.960Z,91.00
2018-02-13T06:11:18.106Z,91.70
2018-02-13T06:13:45.739Z,91.60
2018-02-13T06:16:13.487Z,90.50
2018-02-13T06:18:41.159Z,91.10
2018-02-13T06:21:08.794Z,91.00
2018-02-13T06:23:36.456Z,92.00
2018-02-13T06:26:04.187Z,95.10
2018-02-13T06:31:00.304Z,94.70
2018-02-13T06:33:28.004Z,92.30
2018-02-13T06:38:41.937Z,93.20
2018-02-13T06:43:39.160Z,92.60
2018-02-13T06:48:39.257Z,93.00
2018-02-13T06:51:06.934Z,92.40
2018-02-13T06:53:34.645Z,92.80
2018-02-13T06:56:02.299Z,93.40
2018-02-13T06:58:30.253Z,93.50
2018-02-13T07:00:57.971Z,93.90
2018-02-13T07:03:25.897Z,94.70
2018-02-13T07:05:53.543Z,94.30
2018-02-13T07:08:21.258Z,93.30
2018-02-13T07:10:48.917Z,92.30
2018-02-13T07:13:16.558Z,92.50
2018-02-13T07:15:44.283Z,91.50
2018-02-13T07:18:11.937Z,91.50
2018-02-13T07:20:39.580Z,90.80
2018-02-13T07:23:08.441Z,89.70
2018-02-13T07:25:37.002Z,89.20
2018-02-13T07:30:32.387Z,89.00
2018-02-13T07:33:00.058Z,89.50
2018-02-13T07:35:29.679Z,88.50
2018-02-13T07:37:55.457Z,88.50
2018-02-13T07:40:23.105Z,88.20
2018-02-13T07:42:51.939Z,86.30
2018-02-13T07:45:19.656Z,87.30
2018-02-13T07:47:47.301Z,87.30
2018-02-13T07:50:14.961Z,86.90
2018-02-13T07:52:42.689Z,86.00
2018-02-13T07:55:10.343Z,85.80
2018-02-13T07:57:38.817Z,86.20
2018-02-13T08:00:06.543Z,86.90
2018-02-13T08:07:44.815Z,91.10
2018-02-13T08:10:12.425Z,90.60
2018-02-13T08:12:40.192Z,89.70
2018-02-13T08:20:04.072Z,88.90
2018-02-13T08:22:31.722Z,88.20
2018-02-13T08:25:07.303Z,86.90
2018-02-13T08:27:34.987Z,86.50
2018-02-13T08:30:03.589Z,86.60
2018-02-13T08:32:31.319Z,87.20
2018-02-13T08:34:59.801Z,86.70
2018-02-13T08:37:30.131Z,87.20
2018-02-13T08:39:57.832Z,87.00
2018-02-13T08:42:25.511Z,87.90
2018-02-13T08:44:55.457Z,85.20
2018-02-13T08:47:23.540Z,85.80
2018-02-13T08:49:51.232Z,80.70
2018-02-13T08:52:19.828Z,82.20
2018-02-13T08:54:47.585Z,81.60
2018-02-13T08:57:15.267Z,79.90
2018-02-13T08:59:44.178Z,80.30
2018-02-13T09:02:12.317Z,80.50
2018-02-13T09:04:42.309Z,78.40
2018-02-13T09:07:09.967Z,76.80
2018-02-13T09:09:37.687Z,76.50
2018-02-13T09:12:05.352Z,74.40
2018-02-13T09:14:32.998Z,71.70
2018-02-13T09:17:00.728Z,74.80
2018-02-13T09:19:28.372Z,73.90
2018-02-13T09:21:56.393Z,73.90
2018-02-13T09:24:24.891Z,71.00
2018-02-13T09:29:31.726Z,69.50
2018-02-13T09:32:01.361Z,67.90
2018-02-13T09:34:31.702Z,59.60
2018-02-13T09:39:42.400Z,60.90
2018-02-13T09:42:11.148Z,57.60
2018-02-13T09:44:38.813Z,58.30
2018-02-13T09:47:07.490Z,53.90
2018-02-13T09:52:04.166Z,49.60
2018-02-13T09:54:31.831Z,53.70
2018-02-13T09:56:59.540Z,47.70
2018-02-13T09:59:27.203Z,49.30
2018-02-13T10:01:54.869Z,46.70
2018-02-13T10:04:23.436Z,41.90
2018-02-13T10:06:51.104Z,44.40
2018-02-13T10:09:19.598Z,44.50
2018-02-13T10:11:48.168Z,45.20
2018-02-13T10:14:16.664Z,50.20
2018-02-13T10:16:44.334Z,48.00
2018-02-13T10:24:07.408Z,43.00
2018-02-13T10:26:35.616Z,42.80
2018-02-13T10:29:04.260Z,39.90
2018-02-13T10:31:31.927Z,42.90
2018-02-13T10:36:27.333Z,48.10
2018-02-13T10:38:54.990Z,46.50
2018-02-13T10:41:23.656Z,40.90
2018-02-13T10:43:51.343Z,40.20
2018-02-13T10:46:18.981Z,43.20
2018-02-13T10:48:47.536Z,42.30
2018-02-13T10:51:15.189Z,44.70
2018-02-13T10:53:42.859Z,46.90
2018-02-13T10:56:10.574Z,51.00
2018-02-13T10:58:39.053Z,48.60
2018-02-13T11:03:54.698Z,47.50
2018-02-13T11:06:22.524Z,48.50
2018-02-13T11:08:50.179Z,51.10
2018-02-13T11:13:45.570Z,48.10
2018-02-13T11:16:14.585Z,47.20
2018-02-13T11:18:42.261Z,52.10
2018-02-13T11:21:09.986Z,48.70
2018-02-13T11:23:37.639Z,50.90
2018-02-13T11:26:08.759Z,52.20
2018-02-13T11:28:36.520Z,48.60
2018-02-13T11:31:05.005Z,53.90
2018-02-13T11:33:32.687Z,53.90
2018-02-13T11:36:00.424Z,53.50
2018-02-13T11:38:28.159Z,54.60
2018-02-13T11:40:56.033Z,54.70
2018-02-13T11:43:24.213Z,55.90
2018-02-13T11:45:52.184Z,56.60
2018-02-13T11:48:20.350Z,56.20
2018-02-13T11:50:48.893Z,56.50
2018-02-13T11:53:16.924Z,56.70
2018-02-13T11:55:44.581Z,56.70
2018-02-13T11:58:12.330Z,55.20
2018-02-13T12:00:39.977Z,53.50
2018-02-13T12:03:07.629Z,52.90
2018-02-13T12:05:35.352Z,54.20
2018-02-13T12:08:03.365Z,53.80
2018-02-13T12:10:31.571Z,54.40
2018-02-13T12:12:59.261Z,53.80
2018-02-13T12:15:28.190Z,53.50
2018-02-13T12:17:55.837Z,53.70
2018-02-13T12:22:51.233Z,52.80
2018-02-13T12:25:30.844Z,50.20
2018-02-13T12:30:37.648Z,51.70
2018-02-13T12:33:06.142Z,52.00
2018-02-13T12:35:33.807Z,51.10
2018-02-13T12:38:01.564Z,50.50
2018-02-13T12:40:29.170Z,51.70
2018-02-13T12:42:56.861Z,53.20
2018-02-13T12:45:24.541Z,53.10
2018-02-13T12:47:52.201Z,53.50
2018-02-13T12:50:19.845Z,54.20
2018-02-13T12:52:48.421Z,54.80
2018-02-13T12:55:16.071Z,53.50
2018-02-13T12:57:43.730Z,53.20
2018-02-13T13:00:11.435Z,53.80
2018-02-13T13:02:39.650Z,53.00
2018-02-13T13:05:07.289Z,53.90
2018-02-13T13:07:35.023Z,54.40
2018-02-13T13:10:02.659Z,53.60
2018-02-13T13:12:30.314Z,53.30
2018-02-13T13:14:58.013Z,54.90
2018-02-13T13:17:25.656Z,49.60
2018-02-13T13:19:53.322Z,50.00
2018-02-13T13:22:21.451Z,51.90
2018-02-13T13:24:49.096Z,50.60
2018-02-13T13:27:16.739Z,50.50
2018-02-13T13:29:44.430Z,52.70
2018-02-13T13:32:12.298Z,55.80
2018-02-13T13:34:39.953Z,50.30
2018-02-13T13:37:07.690Z,51.50
2018-02-13T13:44:43.440Z,51.80
2018-02-13T13:47:11.092Z,52.90
2018-02-13T13:49:39.102Z,53.20
2018-02-13T13:54:35.294Z,53.50
2018-02-13T13:57:02.941Z,54.80
2018-02-13T13:59:30.659Z,55.20
2018-02-13T14:01:58.319Z,53.10
2018-02-13T14:04:25.957Z,52.80
2018-02-13T14:06:53.698Z,52.20
2018-02-13T14:09:21.345Z,53.00
2018-02-13T14:11:48.991Z,53.40
2018-02-13T14:14:16.736Z,50.10
2018-02-13T14:16:44.378Z,51.90
2018-02-13T14:19:12.036Z,52.80
2018-02-13T14:21:42.927Z,52.70
2018-02-13T14:24:11.401Z,51.90
2018-02-13T14:26:39.051Z,51.60
2018-02-13T14:29:06.742Z,52.50
2018-02-13T14:31:34.656Z,52.50
2018-02-13T14:34:06.945Z,52.30
2018-02-13T14:36:34.602Z,52.50
2018-02-13T14:39:03.205Z,50.70
2018-02-13T14:41:30.913Z,48.90
2018-02-13T14:43:59.522Z,50.00
2018-02-13T14:46:27.158Z,50.10
2018-02-13T14:48:54.876Z,46.70
2018-02-13T14:51:22.517Z,46.90
2018-02-13T14:53:50.934Z,48.40
2018-02-13T14:56:19.022Z,48.10
2018-02-13T14:58:46.650Z,46.20
2018-02-13T15:01:14.407Z,46.00
2018-02-13T15:03:42.266Z,47.30
2018-02-13T15:06:09.919Z,47.00
2018-02-13T15:11:18.126Z,47.40
2018-02-13T15:13:45.766Z,45.20
2018-02-13T15:18:42.879Z,44.80
2018-02-13T15:21:10.520Z,46.80
2018-02-13T15:23:38.160Z,47.10
2018-02-13T15:26:05.882Z,47.00
2018-02-13T15:28:33.535Z,47.20
2018-02-13T15:31:01.185Z,48.50
2018-02-13T15:33:29.837Z,47.80
2018-02-13T15:35:57.479Z,48.30
2018-02-13T15:38:25.958Z,48.50
2018-02-13T15:40:53.659Z,48.90
2018-02-13T15:43:21.321Z,48.30
2018-02-13T15:45:48.965Z,49.50
2018-02-13T15:48:16.671Z,48.90
2018-02-13T15:50:44.353Z,48.70
2018-02-13T15:53:11.981Z,48.10
2018-02-13T15:55:39.691Z,48.10
2018-02-13T16:00:35.834Z,49.40
2018-02-13T16:03:04.120Z,49.40
2018-02-13T16:05:31.761Z,50.30
2018-02-13T16:07:59.957Z,51.60
2018-02-13T16:10:28.673Z,52.00
2018-02-13T16:12:56.335Z,52.00
2018-02-13T16:15:23.990Z,52.70
2018-02-13T16:17:51.721Z,53.00
2018-02-13T16:20:20.174Z,52.50
2018-02-13T16:22:47.831Z,53.00
2018-02-13T16:25:15.532Z,52.90
2018-02-13T16:27:43.173Z,53.20
2018-02-13T16:30:10.828Z,53.30
2018-02-13T16:37:45.333Z,54.00
2018-02-13T16:40:12.977Z,53.70
2018-02-13T16:42:40.623Z,54.00
2018-02-13T16:45:08.349Z,54.50
2018-02-13T16:47:36.035Z,54.20
2018-02-13T16:50:03.683Z,54.90
2018-02-13T16:52:31.412Z,54.80
2018-02-13T16:54:59.977Z,54.80
2018-02-13T16:57:27.636Z,54.00
2018-02-13T16:59:55.316Z,55.30
2018-02-13T17:02:22.968Z,54.70
2018-02-13T17:04:50.602Z,55.20
2018-02-13T17:07:18.318Z,57.70
2018-02-13T17:09:47.763Z,59.70
2018-02-13T17:12:16.273Z,61.00
2018-02-13T17:14:47.549Z,61.20
2018-02-13T17:17:15.218Z,63.30
2018-02-13T17:19:43.774Z,62.00
2018-02-13T17:22:11.501Z,59.80
2018-02-13T17:24:39.156Z,58.70
2018-02-13T17:27:06.847Z,57.80
2018-02-13T17:29:34.536Z,58.50
2018-02-13T17:32:03.035Z,58.60
2018-02-13T17:34:30.659Z,57.70
2018-02-13T17:36:58.373Z,58.40
2018-02-13T17:39:26.523Z,58.40
2018-02-13T17:41:54.192Z,58.70
2018-02-13T17:44:22.814Z,59.10
2018-02-13T17:46:50.450Z,58.20
2018-02-13T17:49:18.106Z,57.80
2018-02-13T17:51:45.816Z,58.20
2018-02-13T17:54:13.463Z,57.70
2018-02-13T17:56:41.164Z,57.70
2018-02-13T17:59:08.841Z,57.50
2018-02-13T18:04:17.792Z,57.00
2018-02-13T18:06:45.471Z,56.60
2018-02-13T18:09:13.139Z,57.10
2018-02-13T18:11:40.845Z,57.20
2018-02-13T18:14:08.985Z,57.80
2018-02-13T18:16:36.671Z,57.50
2018-02-13T18:19:04.435Z,58.20
2018-02-13T18:21:32.094Z,58.00
2018-02-13T18:23:59.771Z,58.00
2018-02-13T18:26:27.553Z,57.40
2018-02-13T18:28:55.224Z,57.40
2018-02-13T18:31:25.285Z,56.00
2018-02-13T18:33:53.854Z,53.40
2018-02-13T18:36:22.324Z,54.50
2018-02-13T18:38:50.071Z,54.00
2018-02-13T18:41:17.887Z,54.00
2018-02-13T18:43:45.528Z,53.20
2018-02-13T18:46:13.140Z,53.90
2018-02-13T18:48:40.873Z,57.10
2018-02-13T18:51:08.521Z,55.00
2018-02-13T18:53:36.874Z,54.30
2018-02-13T18:56:04.602Z,51.50
2018-02-13T18:58:32.269Z,53.60
2018-02-13T19:00:59.932Z,53.90
2018-02-13T19:03:27.886Z,55.30
2018-02-13T19:05:55.714Z,55.00
2018-02-13T19:08:23.345Z,53.30
2018-02-13T19:10:51.081Z,53.90
2018-02-13T19:13:18.750Z,54.10
2018-02-13T19:18:27.545Z,54.70
2018-02-13T19:20:55.258Z,55.40
2018-02-13T19:23:22.915Z,55.60
2018-02-13T19:25:50.625Z,55.90
2018-02-13T19:28:19.232Z,56.00
2018-02-13T19:30:46.952Z,54.90
2018-02-13T19:33:14.673Z,56.20
2018-02-13T19:35:42.314Z,56.90
2018-02-13T19:38:09.957Z,56.00
2018-02-13T19:40:39.478Z,56.10
2018-02-13T19:43:07.169Z,57.60
2018-02-13T19:45:35.098Z,58.50
2018-02-13T19:48:02.801Z,57.10
2018-02-13T19:50:30.475Z,57.60
2018-02-13T19:52:58.118Z,59.60
2018-02-13T19:55:25.858Z,59.30
2018-02-13T19:57:53.592Z,60.70
2018-02-13T20:00:21.281Z,61.30
2018-02-13T20:02:49.273Z,61.30
2018-02-13T20:05:16.880Z,62.20
2018-02-13T20:07:44.640Z,61.40
2018-02-13T20:10:12.303Z,61.70
2018-02-13T20:15:08.504Z,64.10
2018-02-13T20:17:36.224Z,63.70
2018-02-13T20:20:03.860Z,64.30
2018-02-13T20:22:31.510Z,65.30
2018-02-13T20:24:59.291Z,67.00
2018-02-13T20:27:26.890Z,68.20
2018-02-13T20:29:54.526Z,68.50
2018-02-13T20:32:22.227Z,67.20
2018-02-13T20:37:29.021Z,65.10
2018-02-13T20:39:56.658Z,64.50
2018-02-13T20:42:24.321Z,63.90
2018-02-13T20:44:52.039Z,64.40
2018-02-13T20:49:47.345Z,64.80
2018-02-13T20:52:15.053Z,65.00
2018-02-13T20:54:43.000Z,65.90
2018-02-13T20:57:10.640Z,66.50
2018-02-13T20:59:38.860Z,66.00
2018-02-13T21:02:06.482Z,66.20
2018-02-13T21:04:34.177Z,65.80
2018-02-13T21:07:01.854Z,67.80
2018-02-13T21:09:29.793Z,67.50
2018-02-13T21:11:57.439Z,67.40
2018-02-13T21:14:25.432Z,67.80
2018-02-13T21:16:52.851Z,70.00
2018-02-13T21:21:48.223Z,70.50
2018-02-13T21:24:15.866Z,69.40
2018-02-13T21:26:43.516Z,69.80
2018-02-13T21:29:11.237Z,69.50
2018-02-13T21:31:38.883Z,69.30
2018-02-13T21:34:06.524Z,69.10
2018-02-13T21:36:37.434Z,69.10
2018-02-13T21:39:05.081Z,68.50
2018-02-13T21:41:32.714Z,67.90
2018-02-13T21:44:00.442Z,68.60
2018-02-13T21:46:28.082Z,67.50
2018-02-13T21:48:55.732Z,67.30
2018-02-13T21:51:23.416Z,66.90
2018-02-13T21:53:51.309Z,67.10
2018-02-13T21:56:19.288Z,66.50
2018-02-13T22:01:17.417Z,78.00
2018-02-13T22:06:23.234Z,86.30
2018-02-13T22:08:50.900Z,79.20
2018-02-13T22:11:18.822Z,73.60
2018-02-13T22:13:46.860Z,72.50
2018-02-13T22:16:15.286Z,72.30
2018-02-13T22:18:43.220Z,71.60
2018-02-13T22:21:10.950Z,71.30
2018-02-13T22:23:38.830Z,72.20
2018-02-13T22:26:06.853Z,74.60
2018-02-13T22:28:34.952Z,74.50
2018-02-13T22:31:02.589Z,74.80
2018-02-13T22:33:30.244Z,75.10
2018-02-13T22:35:57.945Z,75.70
2018-02-13T22:38:25.589Z,74.60
2018-02-13T22:40:53.222Z,73.40
2018-02-13T22:43:22.711Z,73.00
2018-02-13T22:45:48.566Z,73.40
2018-02-13T22:48:16.584Z,73.50
2018-02-13T22:50:44.302Z,74.10
2018-02-13T22:53:11.940Z,73.80
2018-02-13T22:58:20.377Z,74.00
2018-02-13T23:00:48.009Z,74.00
2018-02-13T23:03:15.643Z,74.60
2018-02-13T23:08:23.079Z,78.10
2018-02-13T23:10:50.814Z,77.30
2018-02-13T23:13:18.555Z,77.80
2018-02-13T23:15:46.216Z,78.00
2018-02-13T23:18:14.318Z,79.70
2018-02-13T23:20:42.016Z,80.90
2018-02-13T23:23:09.989Z,81.90
2018-02-13T23:25:37.645Z,81.00
2018-02-13T23:28:05.375Z,80.10
2018-02-13T23:30:33.017Z,80.30
2018-02-13T23:33:00.703Z,80.00
2018-02-13T23:35:29.708Z,79.40
2018-02-13T23:37:57.345Z,78.90
2018-02-13T23:40:27.604Z,78.40
2018-02-13T23:42:55.340Z,78.20
2018-02-13T23:45:23.882Z,78.60
2018-02-13T23:50:32.501Z,79.00
2018-02-13T23:53:00.169Z,78.40
2018-02-13T23:55:27.805Z,77.10
2018-02-13T23:57:55.534Z,76.30
